PWSweather.com
Personal Weather Stations
Station Observations
WISCHPK61
Green Bay Schmitt Park, Green Bay, WI 54311

Green Bay Schmitt ParkGreen Bay, WI 54311

Lat: 44.514277, Lon: -87.935067

Elevation: 735

Station Type: Acu Rite Pro Weather Center model 02032C

http://greenbayweathercam.com

High Low Average
Temperature 24.6°F-4.1°C -3.6°F-19.8°C 10.5°F-11.9°C
Dew Point 24.4°F-4.2°C -10.7°F-23.7°C 8.5°F-13.1°C
Winds Calm Calm Calm Calm Calm SSECalm SSE
Wind Gusts 1.2 mph1.9 kmh -- --
Humidity 99% 53% 92%
Pressure 29.82 in1009.8 mb 29.61 in1002.7 mb -
Precipitation 0.00 in0.0 mm - -
Hour Temp Dew Point Humidity Winds Wind Gusts Pressure Precip Precip Rate Daily Precip Total
12:00 AM 1.8°F-16.8°C 1.6°F-16.9°C 99% Calm Calm -- 29.77 in1008.1 mb - 0.00 in0.0 mm 0.00 in0.0 mm
01:00 AM 0.3°F-17.6°C 0.1°F-17.7°C 99% Calm Calm -- 29.77 in1008.1 mb - 0.00 in0.0 mm 0.00 in0.0 mm
02:00 AM -0.2°F-17.9°C -0.4°F-18.0°C 99% Calm Calm -- 29.77 in1008.1 mb - 0.00 in0.0 mm 0.00 in0.0 mm
03:00 AM -1.1°F-18.4°C -1.3°F-18.5°C 99% Calm Calm -- 29.77 in1008.1 mb - 0.00 in0.0 mm 0.00 in0.0 mm
04:00 AM -1.8°F-18.8°C -2.0°F-18.9°C 99% Calm Calm -- 29.78 in1008.5 mb - 0.00 in0.0 mm 0.00 in0.0 mm
05:00 AM -2.0°F-18.9°C -2.2°F-19.0°C 99% Calm Calm -- 29.78 in1008.5 mb - 0.00 in0.0 mm 0.00 in0.0 mm
06:00 AM -2.6°F-19.2°C -2.8°F-19.3°C 99% Calm Calm -- 29.79 in1008.8 mb - 0.00 in0.0 mm 0.00 in0.0 mm
07:00 AM -3.6°F-19.8°C -10.7°F-23.7°C 71% Calm Calm -- 29.81 in1009.5 mb - 0.00 in0.0 mm 0.00 in0.0 mm
08:00 AM -3.6°F-19.8°C -3.8°F-19.9°C 99% Calm Calm -- 29.81 in1009.5 mb - 0.00 in0.0 mm 0.00 in0.0 mm
09:00 AM -2.7°F-19.3°C -2.9°F-19.4°C 99% Calm Calm -- 29.81 in1009.5 mb - 0.00 in0.0 mm 0.00 in0.0 mm
10:00 AM 2.9°F-16.2°C 2.7°F-16.3°C 99% Calm Calm -- 29.82 in1009.8 mb - 0.00 in0.0 mm 0.00 in0.0 mm
11:00 AM 9.1°F-12.7°C 8.8°F-12.9°C 99% Calm Calm -- 29.81 in1009.5 mb - 0.00 in0.0 mm 0.00 in0.0 mm
12:00 PM 16.3°F-8.7°C 13.4°F-10.3°C 88% Calm Calm -- 29.81 in1009.5 mb - 0.00 in0.0 mm 0.00 in0.0 mm
01:00 PM 22.7°F-5.2°C 15.6°F-9.1°C 74% Calm Calm 1.2 mph1.9 kmh 29.79 in1008.8 mb - 0.00 in0.0 mm 0.00 in0.0 mm
02:00 PM 24.6°F-4.1°C 24.4°F-4.2°C 99% Calm Calm -- 29.76 in1007.8 mb - 0.00 in0.0 mm 0.00 in0.0 mm
03:00 PM 23.0°F-5.0°C 14.0°F-10.0°C 68% Calm Calm -- 29.73 in1006.8 mb - 0.00 in0.0 mm 0.00 in0.0 mm
04:00 PM 20.7°F-6.3°C 20.5°F-6.4°C 99% Calm Calm -- 29.74 in1007.1 mb - 0.00 in0.0 mm 0.00 in0.0 mm
05:00 PM 19.6°F-6.9°C 5.2°F-14.9°C 53% Calm Calm -- 29.71 in1006.1 mb - 0.00 in0.0 mm 0.00 in0.0 mm
06:00 PM 18.1°F-7.7°C 13.5°F-10.3°C 82% Calm Calm -- 29.70 in1005.8 mb - 0.00 in0.0 mm 0.00 in0.0 mm
07:00 PM 17.8°F-7.9°C 17.6°F-8.0°C 99% Calm Calm -- 29.68 in1005.1 mb - 0.00 in0.0 mm 0.00 in0.0 mm
08:00 PM 17.6°F-8.0°C 17.4°F-8.1°C 99% Calm Calm -- 29.68 in1005.1 mb - 0.00 in0.0 mm 0.00 in0.0 mm
09:00 PM 17.6°F-8.0°C 17.4°F-8.1°C 99% Calm Calm -- 29.67 in1004.7 mb - 0.00 in0.0 mm 0.00 in0.0 mm
10:00 PM 18.5°F-7.5°C 18.3°F-7.6°C 99% Calm Calm -- 29.64 in1003.7 mb - 0.00 in0.0 mm 0.00 in0.0 mm
11:00 PM 19.9°F-6.7°C 19.7°F-6.8°C 99% Calm Calm -- 29.62 in1003.0 mb - 0.00 in0.0 mm 0.00 in0.0 mm